Old Nevada, Nevada
Current Conditions -  °F | °C
As of 4:56 AM on Friday 31 Oct 2014 (Local Time) from KHND Reporting Station
Clear Clear  
Wind Chill: 59°   Ceiling: Unl
Heat Index: 59°   Visibility: 10mi
Dew Point: 30°   Wind: 9mph
Humidity: 33%   Direction: 170°S
Pressure: 29.94"   Gusts: NA
Location:  35.8437°N, 115.134°W
Report Text: KHND 311156Z AUTO 17008KT 10SM CLR 15/M01 A2994 RMK AO2 56008 T01501011 10194 20150 SLP124
Loading
Personal Weather Stations






























Interactive Weather Map
Tropical Storm Tracking
New forecast layout! Learn more

10-Day Weather Forecast

Advertisements
Track Severe Weather on mobile